createdAt,value
2019-05-17T08:29:11.684Z,60.36
2019-05-17T08:31:41.153Z,61.04
2019-05-17T08:34:10.565Z,62.29
2019-05-17T08:36:40.669Z,61.94
2019-05-17T08:39:10.439Z,60.94
2019-05-17T08:41:40.533Z,60.84
2019-05-17T08:44:10.362Z,60.31
2019-05-17T08:46:39.935Z,60.92
2019-05-17T08:49:09.941Z,61.05
2019-05-17T08:51:39.804Z,61.08
2019-05-17T08:54:10.325Z,62.62
2019-05-17T08:56:40.464Z,63.04
2019-05-17T08:59:09.973Z,63.17
2019-05-17T09:01:41.813Z,62.70
2019-05-17T09:04:10.502Z,63.04
2019-05-17T09:06:39.936Z,62.46
2019-05-17T09:09:09.977Z,60.94
2019-05-17T09:11:39.691Z,59.95
2019-05-17T09:14:10.512Z,60.72
2019-05-17T09:16:40.258Z,59.84
2019-05-17T09:19:10.205Z,60.62
2019-05-17T09:21:39.879Z,62.13
2019-05-17T09:24:10.415Z,61.86
2019-05-17T09:26:40.146Z,62.31
2019-05-17T09:29:10.745Z,62.30
2019-05-17T09:31:40.524Z,62.05
2019-05-17T09:34:10.590Z,62.44
2019-05-17T09:36:41.000Z,63.10
2019-05-17T09:39:10.567Z,62.47
2019-05-17T09:41:40.042Z,60.36
2019-05-17T09:44:15.567Z,58.99
2019-05-17T09:46:40.554Z,57.03
2019-05-17T09:49:10.585Z,56.08
2019-05-17T09:51:40.092Z,56.85
2019-05-17T09:54:10.255Z,54.92
2019-05-17T09:56:39.795Z,53.52
2019-05-17T09:59:10.088Z,53.05
2019-05-17T10:01:39.811Z,51.35
2019-05-17T10:04:13.269Z,50.38
2019-05-17T10:06:40.265Z,48.32
2019-05-17T10:09:09.751Z,48.01
2019-05-17T10:11:39.969Z,46.58
2019-05-17T10:14:11.568Z,45.95
2019-05-17T10:16:40.481Z,44.87
2019-05-17T10:19:09.822Z,43.56
2019-05-17T10:21:39.923Z,42.85
2019-05-17T10:24:09.753Z,44.00
2019-05-17T10:26:39.324Z,46.98
2019-05-17T10:29:10.019Z,52.05
2019-05-17T10:31:39.921Z,50.76
2019-05-17T10:34:09.734Z,48.56
2019-05-17T10:36:40.154Z,47.44
2019-05-17T10:39:10.097Z,45.73
2019-05-17T10:41:40.666Z,43.94
2019-05-17T10:44:10.293Z,43.93
2019-05-17T10:46:40.653Z,43.91
2019-05-17T10:49:10.832Z,43.79
2019-05-17T10:51:40.450Z,45.29
2019-05-17T10:54:09.905Z,44.33
2019-05-17T10:56:39.255Z,45.57
2019-05-17T10:59:09.875Z,47.21
2019-05-17T11:01:39.409Z,44.96
2019-05-17T11:04:10.439Z,46.71
2019-05-17T11:06:39.960Z,48.78
2019-05-17T11:09:10.296Z,47.20
2019-05-17T11:11:39.796Z,44.81
2019-05-17T11:14:09.184Z,44.53
2019-05-17T11:16:38.525Z,45.46
2019-05-17T11:19:08.827Z,43.75
2019-05-17T11:21:38.319Z,44.89
2019-05-17T11:24:07.754Z,44.52
2019-05-17T11:26:37.094Z,44.91
2019-05-17T11:29:06.548Z,47.42
2019-05-17T11:31:35.924Z,48.37
2019-05-17T11:34:05.394Z,49.38
2019-05-17T11:36:34.785Z,49.30
2019-05-17T11:39:05.986Z,49.54
2019-05-17T11:41:35.321Z,48.14
2019-05-17T11:44:04.703Z,48.36
2019-05-17T11:46:36.455Z,48.12
2019-05-17T11:49:05.091Z,46.47
2019-05-17T11:51:34.488Z,48.16
2019-05-17T11:54:03.953Z,49.88
2019-05-17T11:56:33.299Z,51.65
2019-05-17T11:59:02.626Z,52.55
2019-05-17T12:01:31.999Z,51.22
2019-05-17T12:04:01.389Z,50.02
2019-05-17T12:06:30.751Z,51.89
2019-05-17T12:09:00.163Z,52.82
2019-05-17T12:11:29.571Z,53.26
2019-05-17T12:13:59.044Z,53.18
2019-05-17T12:16:28.376Z,51.34
2019-05-17T12:18:57.806Z,49.09
2019-05-17T12:21:27.182Z,48.89
2019-05-17T12:23:56.592Z,48.49
2019-05-17T12:26:25.972Z,48.80
2019-05-17T12:28:55.303Z,48.49
2019-05-17T12:31:24.707Z,48.94
2019-05-17T12:33:54.081Z,48.76
2019-05-17T12:36:23.448Z,50.77
2019-05-17T12:38:52.769Z,50.49
2019-05-17T12:41:22.222Z,49.92
2019-05-17T12:43:51.611Z,50.87
2019-05-17T12:46:21.057Z,51.48
2019-05-17T12:48:50.379Z,49.75
2019-05-17T12:51:19.736Z,50.32
2019-05-17T12:53:49.129Z,51.61
2019-05-17T12:56:18.456Z,52.98
2019-05-17T12:58:47.799Z,52.60
2019-05-17T13:01:17.167Z,55.07
2019-05-17T13:03:46.546Z,55.95
2019-05-17T13:06:15.886Z,55.16
2019-05-17T13:08:45.238Z,53.69
2019-05-17T13:11:14.604Z,53.22
2019-05-17T13:13:43.989Z,52.49
2019-05-17T13:16:17.843Z,52.07
2019-05-17T13:18:44.361Z,53.22
2019-05-17T13:21:13.728Z,52.69
2019-05-17T13:23:43.085Z,53.43
2019-05-17T13:26:12.442Z,52.21
2019-05-17T13:28:41.876Z,49.29
2019-05-17T13:31:11.557Z,48.20
2019-05-17T13:33:41.137Z,46.68
2019-05-17T13:36:10.685Z,44.53
2019-05-17T13:38:40.069Z,46.67
2019-05-17T13:41:09.419Z,49.54
2019-05-17T13:43:38.806Z,51.00
2019-05-17T13:46:08.257Z,55.25
2019-05-17T13:48:37.627Z,57.02
2019-05-17T13:51:06.944Z,59.04
2019-05-17T13:53:36.281Z,59.62
2019-05-17T13:56:05.623Z,59.62
2019-05-17T13:58:34.971Z,60.84
2019-05-17T14:01:04.397Z,61.82
2019-05-17T14:03:33.824Z,61.82
2019-05-17T14:06:03.163Z,62.28
2019-05-17T14:08:32.516Z,63.47
2019-05-17T14:11:02.008Z,64.25
2019-05-17T14:13:31.408Z,65.58
2019-05-17T14:16:00.807Z,65.78
2019-05-17T14:18:30.167Z,66.29
2019-05-17T14:20:59.480Z,66.47
2019-05-17T14:23:28.821Z,66.87
2019-05-17T14:25:58.156Z,67.16
2019-05-17T14:28:27.496Z,67.92
2019-05-17T14:30:56.837Z,68.08
2019-05-17T14:33:26.147Z,68.45
2019-05-17T14:35:55.490Z,69.40
2019-05-17T14:38:24.790Z,69.16
2019-05-17T14:41:06.358Z,69.68
2019-05-17T14:43:25.221Z,70.11
2019-05-17T14:45:54.609Z,70.86
2019-05-17T14:48:24.451Z,71.78
2019-05-17T14:50:53.849Z,72.28
2019-05-17T14:53:23.196Z,72.30
2019-05-17T14:55:52.511Z,73.01
2019-05-17T14:58:21.854Z,73.37
2019-05-17T15:00:51.201Z,73.55
2019-05-17T15:03:20.519Z,73.42
2019-05-17T15:05:49.894Z,74.11
2019-05-17T15:08:19.291Z,75.14
2019-05-17T15:10:48.598Z,76.81
2019-05-17T15:13:17.926Z,77.06
2019-05-17T15:15:47.606Z,76.72
2019-05-17T15:18:17.170Z,77.04
2019-05-17T15:20:46.495Z,77.08
2019-05-17T15:23:15.842Z,77.84
2019-05-17T15:25:45.202Z,78.20
2019-05-17T15:28:14.561Z,79.86
2019-05-17T15:30:43.871Z,81.58
2019-05-17T15:33:13.259Z,81.94
2019-05-17T15:35:42.574Z,81.20
2019-05-17T15:38:11.925Z,81.86
2019-05-17T15:40:41.347Z,81.15
2019-05-17T15:43:10.759Z,81.40
2019-05-17T15:45:40.458Z,82.02
2019-05-17T15:48:09.846Z,83.40
2019-05-17T15:50:39.154Z,84.77
2019-05-17T15:53:08.496Z,85.00
2019-05-17T15:55:37.824Z,85.84
2019-05-17T15:58:07.207Z,86.07
2019-05-17T16:00:36.553Z,86.30
2019-05-17T16:03:05.882Z,86.39
2019-05-17T16:05:35.213Z,88.15
2019-05-17T16:08:04.573Z,89.98
2019-05-17T16:10:33.984Z,90.77
2019-05-17T16:13:03.735Z,91.05
2019-05-17T16:15:33.137Z,91.00
2019-05-17T16:18:02.448Z,91.08
2019-05-17T16:20:31.751Z,90.56
2019-05-17T16:23:01.090Z,93.20
2019-05-17T16:25:33.729Z,94.06
2019-05-17T16:28:01.538Z,93.39
2019-05-17T16:30:30.861Z,93.21
2019-05-17T16:33:00.210Z,93.30
2019-05-17T16:35:29.854Z,92.50
2019-05-17T16:37:59.547Z,91.95
2019-05-17T16:40:29.186Z,90.87
2019-05-17T16:42:58.817Z,90.25
2019-05-17T16:45:28.375Z,89.69
2019-05-17T16:47:58.165Z,90.29
2019-05-17T16:50:27.539Z,90.22
2019-05-17T16:53:05.508Z,89.42
2019-05-17T16:55:27.975Z,89.05
2019-05-17T16:57:57.283Z,88.50
2019-05-17T17:00:33.357Z,87.89
2019-05-17T17:03:03.134Z,87.41
2019-05-17T17:05:32.484Z,86.57
2019-05-17T17:08:02.215Z,85.53
2019-05-17T17:10:31.534Z,85.09
2019-05-17T17:13:00.850Z,84.65
2019-05-17T17:15:30.236Z,84.29
2019-05-17T17:17:59.609Z,84.51
2019-05-17T17:20:29.237Z,84.19
2019-05-17T17:22:58.667Z,85.10
2019-05-17T17:25:28.214Z,85.66
2019-05-17T17:27:57.544Z,84.79
2019-05-17T17:30:26.851Z,83.40
2019-05-17T17:32:56.368Z,83.76
2019-05-17T17:35:25.762Z,83.24
2019-05-17T17:37:55.557Z,83.51
2019-05-17T17:40:25.312Z,83.67
2019-05-17T17:42:54.661Z,83.42
2019-05-17T17:45:25.584Z,82.03
2019-05-17T17:47:54.950Z,81.77
2019-05-17T17:50:24.402Z,81.18
2019-05-17T17:52:53.727Z,82.11
2019-05-17T17:55:23.186Z,82.75
2019-05-17T17:57:52.893Z,84.02
2019-05-17T18:00:22.807Z,85.07
2019-05-17T18:02:52.289Z,86.80
2019-05-17T18:05:24.910Z,87.19
2019-05-17T18:07:52.695Z,87.70
2019-05-17T18:10:30.966Z,88.19
2019-05-17T18:13:00.362Z,88.12
2019-05-17T18:15:37.901Z,88.09
2019-05-17T18:18:07.445Z,89.32
2019-05-17T18:20:37.072Z,88.69
2019-05-17T18:23:06.405Z,88.28
2019-05-17T18:25:36.247Z,88.10
2019-05-17T18:28:06.075Z,87.86
2019-05-17T18:30:35.629Z,88.48
2019-05-17T18:33:05.634Z,88.17
2019-05-17T18:35:35.444Z,87.44
2019-05-17T18:38:05.415Z,87.77
2019-05-17T18:40:34.803Z,87.88
2019-05-17T18:43:04.234Z,86.76
2019-05-17T18:45:33.791Z,86.17
2019-05-17T18:48:03.366Z,85.01
2019-05-17T18:50:32.838Z,83.55
2019-05-17T18:53:03.302Z,83.25
2019-05-17T18:55:32.884Z,84.47
2019-05-17T18:58:02.296Z,85.50
2019-05-17T19:00:31.752Z,86.02
2019-05-17T19:03:01.100Z,86.37
2019-05-17T19:05:30.441Z,86.10
2019-05-17T19:08:00.042Z,86.00
2019-05-17T19:10:30.792Z,86.75
2019-05-17T19:13:00.148Z,87.42
2019-05-17T19:15:29.892Z,89.17
2019-05-17T19:17:59.567Z,88.74
2019-05-17T19:20:28.897Z,89.77
2019-05-17T19:22:58.587Z,90.46
2019-05-17T19:25:28.605Z,89.65
2019-05-17T19:27:59.893Z,88.83
2019-05-17T19:30:29.837Z,90.61
2019-05-17T19:33:00.831Z,90.65
2019-05-17T19:35:30.205Z,90.21
2019-05-17T19:37:59.642Z,88.56
2019-05-17T19:40:28.979Z,88.03
2019-05-17T19:42:58.392Z,87.01
2019-05-17T19:45:27.729Z,86.88
2019-05-17T19:47:57.121Z,87.83
2019-05-17T19:50:26.620Z,87.74
2019-05-17T19:52:56.378Z,88.67
2019-05-17T19:55:25.724Z,86.99
2019-05-17T19:57:55.141Z,86.19
2019-05-17T20:00:24.661Z,86.21
2019-05-17T20:02:54.011Z,87.55
2019-05-17T20:05:23.359Z,89.37
2019-05-17T20:07:52.756Z,90.96
2019-05-17T20:10:23.351Z,91.37
2019-05-17T20:12:53.485Z,91.95
2019-05-17T20:15:34.241Z,92.45
2019-05-17T20:17:53.923Z,92.60
2019-05-17T20:20:23.356Z,91.48
2019-05-17T20:22:53.110Z,91.47
2019-05-17T20:25:24.140Z,91.24
2019-05-17T20:27:56.687Z,90.79
2019-05-17T20:30:26.015Z,89.69
2019-05-17T20:32:55.376Z,88.74
2019-05-17T20:35:24.791Z,88.15
2019-05-17T20:37:54.170Z,87.46
2019-05-17T20:40:24.014Z,87.39
2019-05-17T20:42:53.351Z,87.04
2019-05-17T20:45:32.546Z,87.84
2019-05-17T20:47:53.797Z,89.74
2019-05-17T20:50:23.115Z,91.66
2019-05-17T20:52:52.453Z,93.23
2019-05-17T20:55:21.779Z,94.42
2019-05-17T20:57:51.185Z,94.99
2019-05-17T21:00:20.711Z,95.36
2019-05-17T21:02:50.088Z,95.94
2019-05-17T21:05:19.678Z,96.71
2019-05-17T21:07:49.166Z,97.61
2019-05-17T21:10:18.678Z,98.69
2019-05-17T21:12:48.002Z,99.32
2019-05-17T21:15:17.355Z,100.00
2019-05-17T21:17:46.759Z,100.00
2019-05-17T21:20:16.300Z,100.00
2019-05-17T21:22:45.649Z,100.00
2019-05-17T21:25:15.123Z,100.00
2019-05-17T21:27:44.505Z,100.00
2019-05-17T21:30:13.938Z,100.00
2019-05-17T21:32:43.587Z,100.00
2019-05-17T21:35:12.965Z,100.00
2019-05-17T21:37:42.328Z,100.00
2019-05-17T21:40:12.165Z,100.00
2019-05-17T21:42:41.521Z,100.00
2019-05-17T21:45:11.179Z,100.00
2019-05-17T21:47:40.561Z,100.00
2019-05-17T21:50:10.267Z,100.00
2019-05-17T21:52:39.602Z,100.00
2019-05-17T21:55:08.985Z,100.00
2019-05-17T21:57:38.370Z,100.00
2019-05-17T22:00:11.989Z,100.00
2019-05-17T22:02:41.311Z,100.00
2019-05-17T22:05:10.859Z,100.00
2019-05-17T22:07:40.293Z,100.00
2019-05-17T22:10:09.814Z,100.00
2019-05-17T22:12:39.150Z,100.00
2019-05-17T22:15:08.759Z,100.00
2019-05-17T22:17:38.124Z,100.00
2019-05-17T22:20:08.029Z,100.00
2019-05-17T22:22:37.390Z,100.00
2019-05-17T22:25:06.863Z,100.00
2019-05-17T22:27:37.989Z,100.00
2019-05-17T22:30:07.673Z,100.00
2019-05-17T22:32:37.025Z,100.00
2019-05-17T22:35:06.703Z,99.86
2019-05-17T22:37:36.059Z,99.32
2019-05-17T22:40:06.018Z,98.68
2019-05-17T22:42:35.347Z,98.48
2019-05-17T22:45:04.870Z,98.98
2019-05-17T22:47:34.247Z,99.28
2019-05-17T22:50:03.789Z,99.57
2019-05-17T22:52:33.215Z,99.68
2019-05-17T22:55:02.583Z,99.85
2019-05-17T22:57:31.966Z,100.00
2019-05-17T23:00:01.366Z,100.00
2019-05-17T23:02:30.692Z,100.00
2019-05-17T23:05:00.032Z,100.00
2019-05-17T23:07:29.491Z,100.00
2019-05-17T23:09:58.922Z,100.00
2019-05-17T23:12:28.257Z,100.00
2019-05-17T23:14:57.609Z,100.00
2019-05-17T23:17:27.030Z,100.00
2019-05-17T23:19:56.400Z,100.00
2019-05-17T23:22:25.751Z,100.00
2019-05-17T23:24:55.521Z,100.00
2019-05-17T23:27:24.896Z,100.00
2019-05-17T23:29:54.256Z,100.00
2019-05-17T23:32:23.666Z,100.00
2019-05-17T23:34:52.995Z,100.00
2019-05-17T23:37:22.387Z,100.00
2019-05-17T23:39:51.875Z,100.00
2019-05-17T23:42:21.196Z,100.00
2019-05-17T23:44:50.565Z,100.00
2019-05-17T23:47:19.931Z,100.00
2019-05-17T23:49:49.337Z,100.00
2019-05-17T23:52:18.653Z,100.00
2019-05-17T23:54:48.156Z,100.00
2019-05-17T23:57:17.529Z,100.00
2019-05-17T23:59:46.902Z,100.00
